Ride Results

Kiwarrak (19-09-2015)
Ride distance: 80.0 km

Outcomes - Kiwarrak (19-09-2015)
Division No. of Entries Retired / DNE Completed Withdrawn Ineligible V/O Percentage Completed
HW 5 - 3 - - 2 60.00%
MW 14 - 13 - - 1 92.86%
LW 8 - 8 - - - 100.00%
JN 5 - 4 - - 1 80.00%
Totals 32 - 28 - - 4 87.50%
Results - Kiwarrak (19-09-2015)
No. Rider Horse Place Time Leg Speeds Total
Km/Hr
H/R bpm
Heavyweight
14 Steve Broadbent Glendhu Moonshine 1 (BC) 5:09:00 16.6, 14.5 15.53 33, 51, 46 (Avg:48)
29 Phil Coleman Rainbows Reach Dark N Stormy 2 7:22:00 11.3, 10.4 10.86 40, 42, 39 (Avg:40)
10 Nigel Colefax Nelson 3 7:55:00 10.3, 9.8 10.11 42, 41, 43 (Avg:42)
6 Gary Pevy Future Dreams Maximus Heart Rate L2 0:00:00 11.1, 10.9 - 44, 41, 64 (Avg:52)
12 Con Bouzianis Conderosa Zaheera Lame L1 0:00:00 10.3 - 53, 38 (Avg:38)
Middleweight
5 Debbie Pevy Just Cruzin 1 (BC) 5:26:00 15.3, 14.1 14.72 39, 51, 55 (Avg:53)
24 Johanne Gardiner Coolinda Park Xzinda-Ella 2 6:25:00 12.6, 12.3 12.47 33, 39, 43 (Avg:41)
20 Anne Hills Inshallah Echo's Flight 2 6:25:00 15.3, 10.4 12.47 40, 45, 45 (Avg:45)
19 Christopher Schofield Bradali Ice N Rain 2 6:25:00 13.0, 11.9 12.47 37, 43, 48 (Avg:45)
15 Peter Bice Georgie Girl 5 6:54:00 12.9, 10.4 11.59 39, 40, 43 (Avg:41)
23 Sandi Brown Indigo Dreaming 6 6:55:00 11.5, 11.5 11.57 44, 49, 54 (Avg:51)
9 Carol Major Bradali Najmul Fi Samar 7 6:58:00 12.0, 10.9 11.48 35, 41, 48 (Avg:44)
31 Belinda Bailey Brandy Haze 8 7:25:00 11.1, 10.4 10.79 41, 43, 46 (Avg:44)
27 Jo Davis Wicketly Good 9 7:44:00 11.0, 9.7 10.34 34, 37, 44 (Avg:40)
28 Garry Matthews A'Landell Prestige 9 7:44:00 11.0, 9.7 10.34 34, 36, 49 (Avg:42)
13 Tom Bouzianis Safour 11 7:55:00 10.3, 9.8 10.11 36, 36, 37 (Avg:36)
8 Madeline Cotton Kurrency Mi 12 8:46:00 8.8, 9.4 9.13 32, 45, 49 (Avg:47)
4 Jackie Tattam Khaleem De-Rothbury 12 8:46:00 8.8, 9.4 9.13 34, 39, 40 (Avg:39)
17 Tracy Broadbent Splendacrest Grouse Lame L2 0:00:00 16.6, 14.5 - 40, 44, 43 (Avg:43)
Lightweight
16 Shannen Thorsby Kamikaze Jacob 1 (BC) 5:39:00 16.6, 12.3 14.16 37, 49, 50 (Avg:49)
32 Zoe Locke Graciella 2 6:07:00 12.6, 13.5 13.08 35, 38, 44 (Avg:41)
26 Elizabeth Moir Kenya s Gold 3 6:29:00 12.4, 12.1 12.34 28, 35, 44 (Avg:39)
3 Victoria Bice Raymar Aden 4 6:54:00 12.9, 10.4 11.59 34, 39, 49 (Avg:44)
2 Emma Broome Raymar Aisha 5 6:57:00 12.2, 10.8 11.51 33, 49, 53 (Avg:51)
1 Anita Rodgers Raymar Henry 5 6:57:00 12.2, 10.8 11.51 30, 45, 50 (Avg:47)
11 Sue Todd Shakari Bear 7 6:58:00 12.0, 10.9 11.48 38, 48, 54 (Avg:51)
30 Ros Ryan Rainbows Reach Scout 8 7:22:00 11.3, 10.4 10.86 29, 42, 44 (Avg:43)
Junior
18 Isabel Foster Newbury Shaklan's Impact 1 6:25:00 13.0, 11.9 12.47 39, 45, 56 (Avg:50)
25 Gabrielle Worth Douglas 2 (BC) 6:32:00 12.3, 12.1 12.24 34, 43, 42 (Avg:42)
21 Isabella Circosta Ropa Park Bella Shakila 3 7:22:00 11.4, 10.3 10.86 36, 38, 40 (Avg:39)
22 Makayla Circosta Ropa Park Bella Rastique 3 7:22:00 11.4, 10.3 10.86 33, 44, 49 (Avg:46)
7 Tomeika Bond-Pevy Mr Bo-Jangles Lame L2 0:00:00 11.1, 10.9 - 37, 39, 57 (Avg:48)